Terminal Aerodrome Forecast
Issued by NWS

Home | Current Version | Previous Version | Text Only | Print | Product List | Glossary On
Versions: 1 2 3 4 5 6 7 8 9 10 11 12 13 14 15 16
771
FTUS46 KMFR 300113 AAA
TAFLMT
TAF AMD
KLMT 300113Z 3001/3024 30006KT P6SM -RA SCT020 BKN035 OVC060
      TEMPO 3001/3005 BKN020
     FM300500 26007KT P6SM -SHRA BKN025 OVC050
     FM301400 31012G22KT 5SM -RASN BR BKN025 OVC040
     FM301800 31025G32KT P6SM SCT025 BKN250
     FM302300 32029G37KT P6SM BKN250=

USA.gov is the U.S. government's official web portal to all federal, state and local government web resources and services.